Time;durP1;ratioP1;P1;durP2;ratioP2;P2;SDS_P1;SDS_P2;PMS_P1;PMS_P2;Temp;Humidity;BMP_temperature;BMP_pressure;BME280_temperature;BME280_humidity;BME280_pressure;Samples;Min_cycle;Max_cycle;Signal;HPM_P1;HPM_P2
2023/06/17 00:00:28;;;;;;;4.85;1.83;;;16.80;99.90;;;;;;5032017;28;20028;-44
2023/06/17 00:02:53;;;;;;;3.42;1.80;;;16.80;99.90;;;;;;5031990;28;20044;-45
2023/06/17 00:05:20;;;;;;;3.58;1.98;;;16.80;99.90;;;;;;5031907;28;20018;-50
2023/06/17 00:07:46;;;;;;;4.53;1.95;;;16.80;99.90;;;;;;5031870;28;20030;-46
2023/06/17 00:10:12;;;;;;;3.92;1.80;;;16.80;99.90;;;;;;5032129;28;20376;-50
2023/06/17 00:12:39;;;;;;;3.63;2.00;;;16.80;99.90;;;;;;5031550;28;20017;-46
2023/06/17 00:15:06;;;;;;;4.93;2.15;;;16.80;99.90;;;;;;5031810;28;20361;-53
2023/06/17 00:17:32;;;;;;;2.60;1.65;;;16.80;99.90;;;;;;5031762;28;20025;-46
2023/06/17 00:20:00;;;;;;;4.68;2.20;;;16.80;99.90;;;;;;5031754;28;20030;-49
2023/06/17 00:22:29;;;;;;;4.32;2.40;;;16.70;99.90;;;;;;5031476;28;20045;-50
2023/06/17 00:24:56;;;;;;;3.08;2.10;;;16.70;99.90;;;;;;5031816;28;20033;-47
2023/06/17 00:27:21;;;;;;;3.95;2.10;;;16.70;99.90;;;;;;5031789;28;20084;-45
2023/06/17 00:29:47;;;;;;;4.35;2.17;;;16.70;99.90;;;;;;5031537;28;20606;-44
2023/06/17 00:32:13;;;;;;;4.65;2.40;;;16.70;99.90;;;;;;5031499;28;20045;-57
2023/06/17 00:34:38;;;;;;;5.28;2.72;;;16.60;99.90;;;;;;5031481;28;20092;-53
2023/06/17 00:37:04;;;;;;;3.95;2.17;;;16.70;99.90;;;;;;5031317;28;20104;-55
2023/06/17 00:39:30;;;;;;;5.10;2.72;;;16.60;99.90;;;;;;5013565;28;20057;-52
2023/06/17 00:41:57;;;;;;;5.05;2.60;;;16.60;99.90;;;;;;5031250;28;20510;-48
2023/06/17 00:44:23;;;;;;;4.90;2.60;;;16.60;99.90;;;;;;5030973;28;20045;-52
2023/06/17 00:46:50;;;;;;;4.03;2.17;;;16.60;99.90;;;;;;5030880;28;20028;-44
2023/06/17 00:49:17;;;;;;;7.22;2.53;;;16.60;99.90;;;;;;5031231;28;20037;-49
2023/06/17 00:51:44;;;;;;;5.47;2.63;;;16.60;99.90;;;;;;5030958;28;20226;-54
2023/06/17 00:54:12;;;;;;;4.40;2.55;;;16.50;99.90;;;;;;5031161;28;20021;-52
2023/06/17 00:56:39;;;;;;;3.83;2.00;;;16.50;99.90;;;;;;5030604;28;20404;-44
2023/06/17 00:59:05;;;;;;;4.05;2.17;;;16.40;99.90;;;;;;5030081;28;20033;-46
2023/06/17 01:01:35;;;;;;;3.92;2.10;;;16.40;99.90;;;;;;5030277;28;20021;-45
2023/06/17 01:04:02;;;;;;;4.20;2.15;;;16.40;99.90;;;;;;5029892;28;20108;-44
2023/06/17 01:06:46;;;;;;;4.43;2.20;;;16.40;99.90;;;;;;5030107;28;20404;-44
2023/06/17 01:09:17;;;;;;;4.05;2.53;;;16.30;99.90;;;;;;5030226;28;20025;-44
2023/06/17 01:11:44;;;;;;;5.05;2.42;;;16.30;99.90;;;;;;5030139;28;20079;-44
2023/06/17 01:14:10;;;;;;;4.50;2.40;;;16.30;99.90;;;;;;5029821;28;20494;-54
2023/06/17 01:16:42;;;;;;;4.95;2.88;;;16.30;99.90;;;;;;5029965;28;20504;-47
2023/06/17 01:19:18;;;;;;;5.22;2.38;;;16.30;99.90;;;;;;5029823;28;20030;-47
2023/06/17 01:21:48;;;;;;;4.80;2.40;;;16.30;99.90;;;;;;5029921;28;20502;-47
2023/06/17 01:24:29;;;;;;;3.63;2.17;;;16.20;99.90;;;;;;5029921;28;20038;-50
2023/06/17 01:26:59;;;;;;;4.30;2.38;;;16.20;99.90;;;;;;5029935;28;20024;-57
2023/06/17 01:29:29;;;;;;;5.07;2.33;;;16.00;99.90;;;;;;5029989;28;20362;-47
2023/06/17 01:31:57;;;;;;;4.68;2.20;;;15.90;99.90;;;;;;5029944;28;20587;-52
2023/06/17 01:34:40;;;;;;;5.43;2.75;;;15.80;99.90;;;;;;5029890;28;20021;-48
2023/06/17 01:37:11;;;;;;;6.05;2.45;;;15.70;99.90;;;;;;5029823;28;20108;-53
2023/06/17 01:39:39;;;;;;;4.68;2.22;;;15.60;99.90;;;;;;5029707;28;20381;-53
2023/06/17 01:42:09;;;;;;;6.40;2.20;;;15.60;99.90;;;;;;5029545;28;20063;-47
2023/06/17 01:44:34;;;;;;;;;;;15.50;99.90;;;;;;5025783;28;20069;-52
2023/06/17 01:47:00;;;;;;;4.43;2.45;;;15.50;99.90;;;;;;5029835;28;20379;-45
2023/06/17 01:49:26;;;;;;;3.92;2.08;;;15.40;99.90;;;;;;5029675;28;20064;-49
2023/06/17 01:51:52;;;;;;;4.38;2.30;;;15.40;99.90;;;;;;5029433;28;20053;-48
2023/06/17 01:54:17;;;;;;;5.90;2.85;;;15.40;99.90;;;;;;5029550;28;20480;-45
2023/06/17 01:56:43;;;;;;;3.90;2.15;;;15.40;99.90;;;;;;4991486;28;1101901;-57
2023/06/17 01:59:09;;;;;;;4.93;2.60;;;15.40;99.90;;;;;;5033845;28;20492;-50
2023/06/17 02:01:34;;;;;;;4.95;2.45;;;15.40;99.90;;;;;;5034222;28;20021;-50
2023/06/17 02:04:00;;;;;;;4.25;2.30;;;15.40;99.90;;;;;;5016468;28;20045;-48
2023/06/17 02:06:25;;;;;;;4.03;2.30;;;15.40;99.90;;;;;;5034165;28;20029;-52
2023/06/17 02:08:52;;;;;;;4.22;2.03;;;15.50;99.90;;;;;;5033919;28;20485;-52
2023/06/17 02:11:18;;;;;;;4.70;2.25;;;15.50;99.90;;;;;;5034235;28;20022;-52
2023/06/17 02:13:44;;;;;;;3.58;1.77;;;15.50;99.90;;;;;;5034015;28;20488;-48
2023/06/17 02:16:10;;;;;;;4.20;2.00;;;15.50;99.90;;;;;;5033937;28;20028;-48
2023/06/17 02:18:35;;;;;;;4.30;2.10;;;15.40;99.90;;;;;;5034159;28;20036;-50
2023/06/17 02:21:01;;;;;;;3.65;1.60;;;15.40;99.90;;;;;;5033770;28;20029;-48
2023/06/17 02:23:27;;;;;;;4.93;2.30;;;15.40;99.90;;;;;;5033987;28;20115;-52
2023/06/17 02:25:54;;;;;;;3.83;2.13;;;15.30;99.90;;;;;;5033987;28;20104;-52
2023/06/17 02:28:20;;;;;;;5.40;2.00;;;15.30;99.90;;;;;;5033792;28;20037;-46
2023/06/17 02:30:46;;;;;;;4.78;2.03;;;15.30;99.90;;;;;;5033967;28;20025;-48
2023/06/17 02:33:12;;;;;;;6.63;2.28;;;15.30;99.90;;;;;;5033717;28;20026;-46
2023/06/17 02:35:38;;;;;;;4.25;2.33;;;15.30;99.90;;;;;;5033759;28;20101;-47
2023/06/17 02:38:03;;;;;;;5.00;2.70;;;15.20;99.90;;;;;;5033478;28;20128;-49
2023/06/17 02:40:29;;;;;;;4.15;2.30;;;15.20;99.90;;;;;;5033878;28;20018;-51
2023/06/17 02:42:55;;;;;;;3.40;1.73;;;15.20;99.90;;;;;;5033231;28;20461;-52
2023/06/17 02:45:20;;;;;;;3.17;2.05;;;15.20;99.90;;;;;;5033606;28;20025;-51
2023/06/17 02:47:47;;;;;;;3.50;2.17;;;15.10;99.90;;;;;;5033248;28;20028;-48
2023/06/17 02:50:12;;;;;;;3.50;2.15;;;15.10;99.90;;;;;;5017148;28;20021;-48
2023/06/17 02:52:38;;;;;;;5.55;2.28;;;15.10;99.90;;;;;;5033425;28;20438;-50
2023/06/17 02:55:04;;;;;;;4.13;1.80;;;15.00;99.90;;;;;;5033340;28;20025;-47
2023/06/17 02:57:30;;;;;;;3.83;1.88;;;15.00;99.90;;;;;;5022947;28;20436;-48
2023/06/17 02:59:56;;;;;;;2.58;1.60;;;15.00;99.90;;;;;;5033266;28;20114;-49
2023/06/17 03:02:21;;;;;;;4.82;2.20;;;15.00;99.90;;;;;;5033063;28;20030;-49
2023/06/17 03:04:48;;;;;;;2.97;1.70;;;14.90;99.90;;;;;;5033146;28;20037;-49
2023/06/17 03:07:15;;;;;;;4.07;1.70;;;14.90;99.90;;;;;;5033256;28;20032;-51
2023/06/17 03:09:41;;;;;;;3.50;2.00;;;14.90;99.90;;;;;;5032943;28;20037;-48
2023/06/17 03:12:07;;;;;;;2.45;1.48;;;14.90;99.90;;;;;;5033223;28;20472;-49
2023/06/17 03:14:33;;;;;;;2.88;1.50;;;14.80;99.90;;;;;;5032850;28;20057;-51
2023/06/17 03:16:59;;;;;;;4.18;1.90;;;14.80;99.90;;;;;;5008168;28;20095;-47
2023/06/17 03:19:25;;;;;;;3.65;1.65;;;14.80;99.90;;;;;;5032797;28;20072;-50
2023/06/17 03:21:51;;;;;;;3.38;1.55;;;14.80;99.90;;;;;;5032825;28;20021;-49
2023/06/17 03:24:17;;;;;;;3.40;1.70;;;14.70;99.90;;;;;;5032573;28;20029;-49
2023/06/17 03:26:44;;;;;;;3.75;1.70;;;14.70;99.90;;;;;;5032515;28;20481;-45
2023/06/17 03:29:10;;;;;;;3.63;1.80;;;14.60;99.90;;;;;;5032890;28;20025;-52
2023/06/17 03:31:36;;;;;;;3.47;1.83;;;14.50;99.90;;;;;;5032643;28;20034;-54
2023/06/17 03:34:02;;;;;;;3.60;1.73;;;14.50;99.90;;;;;;5032520;28;20541;-49
2023/06/17 03:36:29;;;;;;;2.45;1.50;;;14.40;99.90;;;;;;5032390;28;20025;-53
2023/06/17 03:38:56;;;;;;;4.13;1.98;;;14.40;99.90;;;;;;5032414;28;20503;-45
2023/06/17 03:41:24;;;;;;;3.05;1.67;;;14.30;99.90;;;;;;5032776;28;20339;-50
2023/06/17 03:43:50;;;;;;;4.10;1.83;;;14.30;99.90;;;;;;5032175;28;20037;-45
2023/06/17 03:46:16;;;;;;;3.25;1.52;;;14.30;99.90;;;;;;5032380;28;20018;-55
2023/06/17 03:48:42;;;;;;;2.72;1.40;;;14.30;99.90;;;;;;5032165;28;20025;-46
2023/06/17 03:51:08;;;;;;;3.05;1.83;;;14.30;99.90;;;;;;5032057;28;20026;-45
2023/06/17 03:53:33;;;;;;;3.83;1.75;;;14.30;99.90;;;;;;5032532;28;20064;-45
2023/06/17 03:55:59;;;;;;;3.00;1.60;;;14.30;99.90;;;;;;5032095;28;20365;-54
2023/06/17 03:58:25;;;;;;;4.35;1.98;;;14.40;99.90;;;;;;5032184;28;20412;-48
2023/06/17 04:00:51;;;;;;;6.18;1.55;;;14.40;99.90;;;;;;5032095;28;20021;-45
2023/06/17 04:03:25;;;;;;;4.55;1.83;;;14.40;99.90;;;;;;5031853;28;20136;-45
2023/06/17 04:05:51;;;;;;;3.30;1.60;;;14.50;99.90;;;;;;5031770;28;20400;-45
2023/06/17 04:08:18;;;;;;;6.15;1.30;;;14.50;99.90;;;;;;5031998;28;20032;-45
2023/06/17 04:10:44;;;;;;;3.50;1.67;;;14.50;99.90;;;;;;5031809;28;20032;-47
2023/06/17 04:13:10;;;;;;;3.25;1.60;;;14.60;99.90;;;;;;5031521;28;20029;-43
2023/06/17 04:15:35;;;;;;;2.85;1.67;;;14.70;99.90;;;;;;5031807;28;20030;-47
2023/06/17 04:18:02;;;;;;;2.33;1.38;;;14.70;99.90;;;;;;5031354;28;20028;-43
2023/06/17 04:20:29;;;;;;;4.55;1.75;;;14.80;99.90;;;;;;5031227;28;20413;-43
2023/06/17 04:22:54;;;;;;;3.33;1.58;;;14.90;99.90;;;;;;5031531;28;20041;-43
2023/06/17 04:25:20;;;;;;;2.88;1.40;;;14.90;99.90;;;;;;5031767;28;20021;-43
2023/06/17 04:27:48;;;;;;;2.13;1.30;;;15.00;99.90;;;;;;5031619;28;20022;-42
2023/06/17 04:30:15;;;;;;;3.42;1.83;;;15.10;99.90;;;;;;5031472;28;20018;-43
2023/06/17 04:32:42;;;;;;;3.60;1.65;;;15.10;99.90;;;;;;5029671;28;20100;-43
2023/06/17 04:35:09;;;;;;;3.85;1.33;;;15.20;99.90;;;;;;5028606;28;20037;-43
2023/06/17 04:37:36;;;;;;;2.90;1.45;;;15.40;99.90;;;;;;5029908;28;20539;-49
2023/06/17 04:40:09;;;;;;;3.28;1.52;;;15.50;99.90;;;;;;5028421;28;20122;-43
2023/06/17 04:42:34;;;;;;;2.42;1.50;;;15.60;99.90;;;;;;5029570;28;20024;-53
2023/06/17 04:45:00;;;;;;;3.10;1.55;;;15.80;99.90;;;;;;5028101;28;20038;-43
2023/06/17 04:47:28;;;;;;;2.80;1.40;;;15.90;99.90;;;;;;5030095;28;20025;-51
2023/06/17 04:49:54;;;;;;;2.03;1.30;;;16.00;99.90;;;;;;5029350;28;20025;-52
2023/06/17 04:52:20;;;;;;;2.97;1.63;;;16.10;99.90;;;;;;5028831;28;20101;-48
2023/06/17 04:54:46;;;;;;;3.78;1.52;;;16.30;99.90;;;;;;5029811;28;20037;-46
2023/06/17 04:57:13;;;;;;;2.33;1.38;;;16.50;99.90;;;;;;5028073;28;20151;-53
2023/06/17 04:59:38;;;;;;;3.65;1.20;;;16.70;99.90;;;;;;5029565;28;20036;-51
2023/06/17 05:02:04;;;;;;;2.00;1.10;;;16.90;99.90;;;;;;5028190;28;20384;-51
2023/06/17 05:04:30;;;;;;;2.25;1.13;;;17.00;99.90;;;;;;5029392;28;20037;-46
2023/06/17 05:06:56;;;;;;;1.65;0.95;;;17.10;99.90;;;;;;5029201;28;20022;-48
2023/06/17 05:09:22;;;;;;;2.42;1.48;;;17.10;99.90;;;;;;5029004;28;20025;-48
2023/06/17 05:11:48;;;;;;;2.50;1.40;;;17.10;99.90;;;;;;5029668;28;20022;-52
2023/06/17 05:14:14;;;;;;;2.42;1.20;;;17.10;99.90;;;;;;5027658;28;20115;-43
2023/06/17 05:16:40;;;;;;;2.97;1.20;;;17.20;99.90;;;;;;5029677;28;20095;-51
2023/06/17 05:19:05;;;;;;;2.08;1.17;;;17.10;99.90;;;;;;5028098;28;20503;-49
2023/06/17 05:21:31;;;;;;;3.20;1.50;;;17.10;99.90;;;;;;5029516;28;20032;-44
2023/06/17 05:23:56;;;;;;;2.38;1.30;;;17.10;99.90;;;;;;5028777;28;20039;-50
2023/06/17 05:26:22;;;;;;;2.92;1.38;;;17.10;99.90;;;;;;5030049;28;20029;-45
2023/06/17 05:28:48;;;;;;;2.67;1.40;;;17.20;99.90;;;;;;5030744;28;20112;-44
2023/06/17 05:31:13;;;;;;;2.58;1.38;;;17.20;99.90;;;;;;5030466;28;20068;-44
2023/06/17 05:33:39;;;;;;;2.63;1.40;;;17.20;99.90;;;;;;5029771;28;20033;-51
2023/06/17 05:36:05;;;;;;;2.25;1.38;;;17.20;99.90;;;;;;5030647;28;20017;-46
2023/06/17 05:38:31;;;;;;;2.20;1.10;;;17.20;99.90;;;;;;5030567;28;20041;-46
2023/06/17 05:40:56;;;;;;;2.05;1.10;;;17.30;99.90;;;;;;5030321;28;20389;-48
2023/06/17 05:43:26;;;;;;;3.65;1.48;;;17.40;99.90;;;;;;5029924;28;20040;-52
2023/06/17 05:45:51;;;;;;;3.20;1.30;;;17.40;99.90;;;;;;5030636;28;20032;-49
2023/06/17 05:48:17;;;;;;;2.15;1.20;;;17.50;99.90;;;;;;5030459;28;20033;-50
2023/06/17 05:50:43;;;;;;;2.85;1.38;;;17.60;99.90;;;;;;5030513;28;20022;-45
2023/06/17 05:53:08;;;;;;;2.50;1.42;;;17.70;99.90;;;;;;5030545;28;20021;-48
2023/06/17 05:55:34;;;;;;;2.15;1.30;;;17.80;99.90;;;;;;5029585;28;20524;-51
2023/06/17 05:58:00;;;;;;;2.08;1.10;;;17.90;99.90;;;;;;5029629;28;20050;-54
2023/06/17 06:00:25;;;;;;;1.92;1.20;;;18.00;99.90;;;;;;5029351;28;20056;-46
2023/06/17 06:02:51;;;;;;;2.10;1.20;;;18.10;99.90;;;;;;5029300;28;20087;-48
2023/06/17 06:05:17;;;;;;;1.58;1.10;;;18.20;99.90;;;;;;5028749;28;20076;-46
2023/06/17 06:07:46;;;;;;;2.60;1.30;;;18.30;99.90;;;;;;5017203;28;20032;-48
2023/06/17 06:10:11;;;;;;;3.07;1.20;;;18.50;99.90;;;;;;5016378;28;20021;-49
2023/06/17 06:12:38;;;;;;;2.13;1.02;;;18.70;99.90;;;;;;5027040;28;20277;-48
2023/06/17 06:15:04;;;;;;;1.75;1.15;;;18.70;99.90;;;;;;5020549;28;20026;-51
2023/06/17 06:17:30;;;;;;;2.20;1.23;;;18.80;99.90;;;;;;5023848;28;20026;-47
2023/06/17 06:19:56;;;;;;;2.15;1.25;;;18.90;99.90;;;;;;5025919;28;20219;-48
2023/06/17 06:22:22;;;;;;;3.03;1.17;;;18.90;99.90;;;;;;5021365;28;20441;-46
2023/06/17 06:24:47;;;;;;;3.67;1.10;;;19.10;99.90;;;;;;5025705;28;20087;-47
2023/06/17 06:27:13;;;;;;;2.70;1.30;;;19.30;99.90;;;;;;5030053;28;20022;-47
2023/06/17 06:29:38;;;;;;;3.20;1.42;;;19.60;99.90;;;;;;5029568;28;20435;-47
2023/06/17 06:32:05;;;;;;;2.85;1.10;;;19.90;99.90;;;;;;5023597;28;20013;-53
2023/06/17 06:34:30;;;;;;;1.67;1.05;;;20.40;99.90;;;;;;5018552;28;20034;-48
2023/06/17 06:36:58;;;;;;;1.90;1.10;;;20.60;99.90;;;;;;5024715;28;20017;-47
2023/06/17 06:39:23;;;;;;;3.70;1.40;;;20.70;99.90;;;;;;5026828;28;20087;-49
2023/06/17 06:41:49;;;;;;;2.28;1.00;;;21.00;99.90;;;;;;5023512;28;20100;-50
2023/06/17 06:44:15;;;;;;;2.58;1.02;;;21.20;99.90;;;;;;5028084;28;20049;-47
2023/06/17 06:46:41;;;;;;;1.60;1.10;;;21.40;99.90;;;;;;5023048;28;20029;-44
2023/06/17 06:49:06;;;;;;;1.90;1.20;;;21.60;99.90;;;;;;5020264;28;20045;-50
2023/06/17 06:51:32;;;;;;;3.13;1.23;;;21.70;99.90;;;;;;5017347;28;20029;-47
2023/06/17 06:53:58;;;;;;;1.88;0.93;;;21.90;99.90;;;;;;5020788;28;20025;-51
2023/06/17 06:56:24;;;;;;;1.95;1.13;;;21.90;99.90;;;;;;5017069;28;20374;-47
2023/06/17 06:58:50;;;;;;;3.83;1.23;;;22.00;99.90;;;;;;5019745;28;20026;-50
2023/06/17 07:01:16;;;;;;;5.05;1.50;;;22.20;99.90;;;;;;5017760;28;20034;-50
2023/06/17 07:03:42;;;;;;;3.22;1.35;;;22.20;99.90;;;;;;5017151;28;20034;-53
2023/06/17 07:06:07;;;;;;;2.47;1.35;;;22.40;99.90;;;;;;5030185;28;20030;-52
2023/06/17 07:08:34;;;;;;;2.00;1.13;;;22.60;99.90;;;;;;5018932;28;20068;-47
2023/06/17 07:11:00;;;;;;;2.38;1.30;;;22.50;99.90;;;;;;5029116;28;20017;-44
2023/06/17 07:13:26;;;;;;;2.70;1.30;;;22.40;99.90;;;;;;5028638;28;20495;-47
2023/06/17 07:15:52;;;;;;;2.50;1.30;;;22.50;99.90;;;;;;5026312;28;20473;-47
2023/06/17 07:18:17;;;;;;;4.15;1.27;;;22.70;99.90;;;;;;5029204;28;20084;-51
2023/06/17 07:20:43;;;;;;;3.05;1.30;;;22.80;99.90;;;;;;5028745;28;20083;-48
2023/06/17 07:23:09;;;;;;;1.90;1.20;;;23.00;99.90;;;;;;5031995;28;20083;-45
2023/06/17 07:25:36;;;;;;;2.80;1.33;;;22.90;99.90;;;;;;5031920;28;20075;-46
2023/06/17 07:28:02;;;;;;;2.47;1.23;;;22.70;99.90;;;;;;5032761;28;20029;-47
2023/06/17 07:30:29;;;;;;;2.55;1.40;;;22.40;99.90;;;;;;5032785;28;20032;-55
2023/06/17 07:32:55;;;;;;;1.73;1.13;;;22.20;99.90;;;;;;5032801;28;20056;-48
2023/06/17 07:35:21;;;;;;;4.20;1.45;;;22.10;99.90;;;;;;5032602;28;20025;-46
2023/06/17 07:37:49;;;;;;;2.08;1.30;;;22.00;99.90;;;;;;5031580;28;20433;-47
2023/06/17 07:40:15;;;;;;;3.22;1.77;;;21.90;99.90;;;;;;5030665;28;20025;-49
2023/06/17 07:42:43;;;;;;;2.67;1.50;;;21.80;99.90;;;;;;5030547;28;20029;-48
2023/06/17 07:45:10;;;;;;;2.35;1.35;;;21.70;99.90;;;;;;5030522;28;20124;-47
2023/06/17 07:47:36;;;;;;;2.25;1.30;;;21.60;99.90;;;;;;5030470;28;20388;-46
2023/06/17 07:50:04;;;;;;;1.67;1.13;;;21.70;99.90;;;;;;5030135;28;20028;-53
2023/06/17 07:52:31;;;;;;;3.03;1.40;;;22.00;99.90;;;;;;5030691;28;20052;-47
2023/06/17 07:54:57;;;;;;;2.95;1.40;;;22.30;99.90;;;;;;5031609;28;20187;-50
2023/06/17 07:57:23;;;;;;;2.28;1.20;;;22.30;99.90;;;;;;5031857;28;20488;-48
2023/06/17 07:59:48;;;;;;;3.55;1.65;;;22.50;99.90;;;;;;5032336;28;20030;-50
2023/06/17 08:02:14;;;;;;;3.05;1.50;;;22.40;99.90;;;;;;5031897;28;20033;-45
2023/06/17 08:04:40;;;;;;;3.03;1.38;;;22.40;99.90;;;;;;5032087;28;20372;-46
2023/06/17 08:07:06;;;;;;;3.35;1.70;;;22.40;99.90;;;;;;5031758;28;20026;-44
2023/06/17 08:09:31;;;;;;;2.63;1.45;;;22.40;99.90;;;;;;5032150;28;20399;-50
2023/06/17 08:11:57;;;;;;;2.63;1.50;;;22.20;99.90;;;;;;5032031;28;20021;-46
2023/06/17 08:14:23;;;;;;;2.85;1.40;;;22.10;99.90;;;;;;5031840;28;20037;-51
2023/06/17 08:16:49;;;;;;;3.97;1.60;;;22.00;99.90;;;;;;5031847;28;20026;-50
2023/06/17 08:19:14;;;;;;;2.75;1.48;;;22.00;99.90;;;;;;5031747;28;20600;-46
2023/06/17 08:21:44;;;;;;;3.53;1.70;;;21.90;99.90;;;;;;5031758;28;20028;-50
2023/06/17 08:24:26;;;;;;;4.18;1.85;;;22.00;99.90;;;;;;5031707;28;20033;-53
2023/06/17 08:26:53;;;;;;;3.00;1.50;;;22.00;99.90;;;;;;5031258;28;20044;-44
2023/06/17 08:29:20;;;;;;;2.55;1.60;;;22.10;99.90;;;;;;5031591;28;20075;-44
2023/06/17 08:31:47;;;;;;;3.80;1.80;;;22.20;99.90;;;;;;5031433;28;20026;-44
2023/06/17 08:34:13;;;;;;;2.83;1.55;;;22.20;99.90;;;;;;5031488;28;20366;-44
2023/06/17 08:36:43;;;;;;;3.00;1.80;;;22.20;99.90;;;;;;5031522;28;20041;-47
2023/06/17 08:39:09;;;;;;;2.30;1.30;;;22.20;99.90;;;;;;5031578;28;20483;-47
2023/06/17 08:41:40;;;;;;;2.83;1.40;;;22.40;99.90;;;;;;5031258;28;20477;-45
2023/06/17 08:44:07;;;;;;;2.10;1.40;;;22.50;99.90;;;;;;5031035;28;20033;-45
2023/06/17 08:46:33;;;;;;;3.70;1.60;;;22.60;99.90;;;;;;5031257;28;20053;-51
2023/06/17 08:48:59;;;;;;;2.75;1.40;;;22.60;99.90;;;;;;5031258;28;20376;-50
2023/06/17 08:51:25;;;;;;;2.83;1.67;;;22.60;99.90;;;;;;5031299;28;20480;-48
2023/06/17 08:53:52;;;;;;;4.47;2.10;;;22.60;99.90;;;;;;5031223;28;20061;-50
2023/06/17 08:56:18;;;;;;;3.35;1.58;;;22.60;99.90;;;;;;5031107;28;20017;-49
2023/06/17 08:58:44;;;;;;;4.00;1.85;;;22.60;99.90;;;;;;5030975;28;20034;-52
2023/06/17 09:01:10;;;;;;;3.13;1.75;;;22.60;99.90;;;;;;5030918;28;20079;-47
2023/06/17 09:03:41;;;;;;;3.38;1.70;;;22.80;99.90;;;;;;5013500;28;20495;-50
2023/06/17 09:06:21;;;;;;;3.50;2.08;;;23.00;99.90;;;;;;5017339;28;20075;-44
2023/06/17 09:08:48;;;;;;;2.40;1.60;;;23.20;99.90;;;;;;5030960;28;20029;-49
2023/06/17 09:11:14;;;;;;;4.53;2.00;;;23.40;99.90;;;;;;5030960;28;20530;-50
2023/06/17 09:13:39;;;;;;;3.60;1.90;;;23.40;99.90;;;;;;5030398;28;20060;-48
2023/06/17 09:16:06;;;;;;;3.22;1.77;;;23.40;99.90;;;;;;5030680;28;20392;-52
2023/06/17 09:18:35;;;;;;;3.30;1.65;;;23.30;99.90;;;;;;5031200;28;20045;-46
2023/06/17 09:21:04;;;;;;;3.80;1.42;;;23.20;99.90;;;;;;5030761;28;20096;-48
2023/06/17 09:23:30;;;;;;;3.92;2.15;;;23.10;99.90;;;;;;5030779;28;20095;-44
2023/06/17 09:26:03;;;;;;;3.45;1.83;;;23.00;99.90;;;;;;5030849;28;20407;-47
2023/06/17 09:28:29;;;;;;;3.70;1.80;;;22.90;99.90;;;;;;5030579;28;20034;-48
2023/06/17 09:30:57;;;;;;;3.22;1.80;;;22.70;99.90;;;;;;5030794;28;20079;-48
2023/06/17 09:33:24;;;;;;;3.70;1.92;;;22.60;99.90;;;;;;5030617;28;20080;-52
2023/06/17 09:36:00;;;;;;;4.18;2.10;;;22.60;99.90;;;;;;5030679;28;20021;-49
2023/06/17 09:38:30;;;;;;;3.63;2.03;;;22.80;99.90;;;;;;5012806;28;20421;-44
2023/06/17 09:40:57;;;;;;;4.25;2.45;;;23.00;99.90;;;;;;5030541;28;20029;-46
2023/06/17 09:43:26;;;;;;;3.75;2.10;;;23.30;99.90;;;;;;5030188;28;20037;-49
2023/06/17 09:46:01;;;;;;;3.03;1.90;;;23.60;99.90;;;;;;5030471;28;20034;-47
2023/06/17 09:48:35;;;;;;;3.78;2.10;;;23.90;99.90;;;;;;5025795;28;20084;-44
2023/06/17 09:51:05;;;;;;;3.65;2.13;;;24.50;99.90;;;;;;5030272;28;20029;-50
2023/06/17 09:53:30;;;;;;;4.70;2.20;;;25.00;99.90;;;;;;5030498;28;20488;-48
2023/06/17 09:55:58;;;;;;;6.25;2.63;;;25.50;99.90;;;;;;5030263;28;20017;-44
2023/06/17 09:58:29;;;;;;;4.13;2.33;;;25.70;99.90;;;;;;5030279;28;20531;-47
2023/06/17 10:00:57;;;;;;;6.32;2.00;;;25.90;99.90;;;;;;5030242;28;20026;-48
2023/06/17 10:03:23;;;;;;;5.03;2.22;;;26.20;99.90;;;;;;5022486;28;20108;-50
2023/06/17 10:06:11;;;;;;;3.72;2.00;;;26.40;99.90;;;;;;5030199;28;20025;-51
2023/06/17 10:08:40;;;;;;;3.45;1.85;;;26.50;99.90;;;;;;5030308;28;20021;-52
2023/06/17 10:11:06;;;;;;;4.63;2.33;;;26.80;99.90;;;;;;5029981;28;20030;-53
2023/06/17 10:13:36;;;;;;;3.55;2.25;;;26.90;99.90;;;;;;5030152;28;20036;-48
2023/06/17 10:16:04;;;;;;;2.95;1.70;;;27.00;99.00;;;;;;5030016;28;20484;-47
2023/06/17 10:18:34;;;;;;;5.13;1.88;;;27.00;99.00;;;;;;5031492;28;20026;-50
2023/06/17 10:21:02;;;;;;;3.88;2.20;;;27.30;98.60;;;;;;5033778;28;20034;-45
2023/06/17 10:23:28;;;;;;;3.80;2.08;;;27.40;97.80;;;;;;5033955;28;20037;-46
2023/06/17 10:25:54;;;;;;;3.00;1.98;;;27.80;98.60;;;;;;5033919;28;20104;-52
2023/06/17 10:28:20;;;;;;;3.17;1.77;;;28.10;98.30;;;;;;5033791;28;20021;-49
2023/06/17 10:30:46;;;;;;;4.53;2.05;;;28.40;96.30;;;;;;5033746;28;20052;-50
2023/06/17 10:33:12;;;;;;;4.53;1.92;;;28.70;97.00;;;;;;5033830;28;20048;-47
2023/06/17 10:35:43;;;;;;;3.90;1.90;;;28.90;95.60;;;;;;5033761;28;20026;-51
2023/06/17 10:38:09;;;;;;;3.92;1.88;;;28.90;94.80;;;;;;5033488;28;20547;-47
2023/06/17 10:40:50;;;;;;;3.67;2.20;;;28.70;94.30;;;;;;5033761;28;20034;-45
2023/06/17 10:43:18;;;;;;;3.35;1.77;;;28.60;94.20;;;;;;5033166;28;20068;-45
2023/06/17 10:45:53;;;;;;;2.65;1.60;;;28.60;94.80;;;;;;5033581;28;20030;-44
2023/06/17 10:48:22;;;;;;;3.65;2.20;;;28.50;95.00;;;;;;5033926;28;20017;-46
2023/06/17 10:50:52;;;;;;;4.80;2.10;;;28.40;93.60;;;;;;5033480;28;20461;-47
2023/06/17 10:53:25;;;;;;;4.18;1.85;;;28.50;94.80;;;;;;5033452;28;20060;-50
2023/06/17 10:55:50;;;;;;;2.85;1.90;;;28.60;95.70;;;;;;5033276;28;20377;-51
2023/06/17 10:58:16;;;;;;;3.65;2.13;;;28.80;94.30;;;;;;5033241;28;20056;-47
2023/06/17 11:00:41;;;;;;;3.42;1.83;;;28.90;93.50;;;;;;5015394;28;20028;-44
2023/06/17 11:03:09;;;;;;;4.13;1.98;;;28.90;93.60;;;;;;5033134;28;20038;-47
2023/06/17 11:05:38;;;;;;;3.15;2.00;;;28.90;92.90;;;;;;5033172;28;20018;-49
2023/06/17 11:08:04;;;;;;;5.13;2.25;;;29.10;93.30;;;;;;5033097;28;20166;-54
2023/06/17 11:10:30;;;;;;;3.67;1.80;;;29.20;91.80;;;;;;5032882;28;20396;-49
2023/06/17 11:12:55;;;;;;;6.00;1.95;;;29.20;92.20;;;;;;5032647;28;20017;-47
2023/06/17 11:15:22;;;;;;;5.35;2.08;;;29.10;90.60;;;;;;5032892;28;20038;-44
2023/06/17 11:18:03;;;;;;;3.97;1.90;;;29.10;90.90;;;;;;5032990;28;20013;-44
2023/06/17 11:20:35;;;;;;;3.47;1.90;;;29.40;92.00;;;;;;5033025;28;20030;-49
2023/06/17 11:23:03;;;;;;;4.65;2.35;;;29.50;90.90;;;;;;5032967;28;20029;-50
2023/06/17 11:25:29;;;;;;;4.03;2.20;;;29.70;91.40;;;;;;5032891;28;20056;-50
2023/06/17 11:27:55;;;;;;;2.67;1.80;;;29.90;90.20;;;;;;5032820;28;20033;-46
2023/06/17 11:30:24;;;;;;;2.88;1.75;;;30.00;90.50;;;;;;5032713;28;20041;-44
2023/06/17 11:32:50;;;;;;;3.38;1.52;;;30.30;91.50;;;;;;5032823;28;20049;-53
2023/06/17 11:35:16;;;;;;;2.10;1.58;;;30.40;90.60;;;;;;5032208;28;20053;-44
2023/06/17 11:37:42;;;;;;;2.50;1.80;;;30.40;87.80;;;;;;5031547;28;20021;-47
2023/06/17 11:40:12;;;;;;;3.20;1.80;;;30.40;89.00;;;;;;5032203;28;20044;-49
2023/06/17 11:42:39;;;;;;;4.93;2.03;;;30.20;89.00;;;;;;5032293;28;20021;-50
2023/06/17 11:45:05;;;;;;;2.97;1.80;;;30.30;87.90;;;;;;5032201;28;20480;-45
2023/06/17 11:47:33;;;;;;;3.05;1.85;;;30.20;89.00;;;;;;5031951;28;20560;-49
2023/06/17 11:49:59;;;;;;;4.30;2.00;;;30.20;84.20;;;;;;5019663;28;20026;-45
2023/06/17 11:52:24;;;;;;;3.65;1.80;;;29.80;86.20;;;;;;5026496;28;20362;-48
2023/06/17 11:54:50;;;;;;;2.92;1.85;;;29.50;86.70;;;;;;5024308;28;20056;-47
2023/06/17 11:57:26;;;;;;;4.63;2.45;;;29.50;85.50;;;;;;5029256;28;20056;-46
2023/06/17 11:59:57;;;;;;;3.47;2.08;;;29.60;89.10;;;;;;5029135;28;20033;-53
2023/06/17 12:02:29;;;;;;;3.42;2.38;;;29.50;86.00;;;;;;5025707;28;20565;-50
2023/06/17 12:05:00;;;;;;;3.17;2.03;;;29.40;85.50;;;;;;5029572;28;20033;-49
2023/06/17 12:07:26;;;;;;;2.85;1.98;;;29.70;89.50;;;;;;5023317;28;20037;-52
2023/06/17 12:09:53;;;;;;;3.20;2.08;;;29.30;84.60;;;;;;5021928;28;20025;-44
2023/06/17 12:12:32;;;;;;;4.53;1.90;;;29.30;83.20;;;;;;5019099;28;20022;-52
2023/06/17 12:15:12;;;;;;;6.07;2.20;;;29.60;86.70;;;;;;5017710;28;20045;-47
2023/06/17 12:17:45;;;;;;;5.60;2.38;;;29.60;85.30;;;;;;5019547;28;20115;-48
2023/06/17 12:20:20;;;;;;;3.03;1.90;;;29.40;84.30;;;;;;5022822;28;20072;-49
2023/06/17 12:22:48;;;;;;;3.97;2.22;;;29.50;83.00;;;;;;5028683;28;20053;-50
2023/06/17 12:25:13;;;;;;;3.05;2.10;;;29.10;84.00;;;;;;5030132;28;20513;-49
2023/06/17 12:27:40;;;;;;;2.83;2.00;;;29.10;86.70;;;;;;5031526;28;20060;-49
2023/06/17 12:30:08;;;;;;;3.08;1.95;;;28.90;83.60;;;;;;5031379;28;20026;-44
2023/06/17 12:32:33;;;;;;;4.25;1.95;;;28.80;84.60;;;;;;5031755;28;20025;-44
2023/06/17 12:34:59;;;;;;;3.08;2.17;;;29.00;85.10;;;;;;5013503;28;20024;-50
2023/06/17 12:37:27;;;;;;;4.38;2.22;;;29.10;83.30;;;;;;5031172;28;20480;-44
2023/06/17 12:40:01;;;;;;;3.90;2.20;;;28.90;84.30;;;;;;5031267;28;20057;-44
2023/06/17 12:42:26;;;;;;;3.42;2.10;;;28.90;85.60;;;;;;5030530;28;20025;-46
2023/06/17 12:44:52;;;;;;;3.75;2.30;;;28.80;87.20;;;;;;5031186;28;20057;-54
2023/06/17 12:47:22;;;;;;;3.05;1.90;;;28.50;84.00;;;;;;5030707;28;20029;-47